createdAt,value
2022-08-04T00:02:11.463Z,17.20
2022-08-04T00:12:18.691Z,17.10
2022-08-04T00:22:29.104Z,17.80
2022-08-04T00:32:35.784Z,17.20
2022-08-04T00:43:05.016Z,17.50
2022-08-04T00:53:20.885Z,16.30
2022-08-04T01:03:48.910Z,17.40
2022-08-04T01:14:17.518Z,17.80
2022-08-04T01:24:42.310Z,17.80
2022-08-04T01:34:53.811Z,18.20
2022-08-04T01:45:02.633Z,17.40
2022-08-04T01:55:11.479Z,16.40
2022-08-04T02:05:19.523Z,17.60
2022-08-04T02:15:32.452Z,17.50
2022-08-04T02:25:41.953Z,15.60
2022-08-04T02:35:55.392Z,18.70
2022-08-04T02:46:02.257Z,17.30
2022-08-04T02:56:09.443Z,17.30
2022-08-04T03:06:24.660Z,18.90
2022-08-04T03:16:51.610Z,17.20
2022-08-04T03:27:03.871Z,18.80
2022-08-04T03:37:47.959Z,21.10
2022-08-04T03:47:54.227Z,18.60
2022-08-04T03:58:37.874Z,18.20
2022-08-04T04:09:01.437Z,18.80
2022-08-04T04:19:17.267Z,17.90
2022-08-04T04:29:32.722Z,19.40
2022-08-04T04:39:56.670Z,18.80
2022-08-04T04:50:18.882Z,19.10
2022-08-04T05:00:26.639Z,20.55
2022-08-04T05:10:53.097Z,19.70
2022-08-04T05:21:21.214Z,19.10
2022-08-04T05:31:32.393Z,21.80
2022-08-04T05:41:46.133Z,19.70
2022-08-04T05:51:57.435Z,23.80
2022-08-04T06:02:04.386Z,20.50
2022-08-04T06:12:18.383Z,20.00
2022-08-04T06:22:25.371Z,19.90
2022-08-04T06:32:49.389Z,20.60
2022-08-04T06:42:56.022Z,19.40
2022-08-04T06:53:02.428Z,22.80
2022-08-04T07:03:08.891Z,19.00
2022-08-04T07:13:15.737Z,17.40
2022-08-04T07:23:26.858Z,15.10
2022-08-04T07:33:33.694Z,17.00
2022-08-04T07:43:40.386Z,15.50
2022-08-04T07:53:54.626Z,15.50
2022-08-04T08:04:03.023Z,15.90
2022-08-04T08:14:12.197Z,18.80
2022-08-04T08:24:18.905Z,15.30
2022-08-04T08:34:27.615Z,13.70
2022-08-04T08:44:37.497Z,16.80
2022-08-04T08:55:11.594Z,12.00
2022-08-04T09:05:48.810Z,13.20
2022-08-04T09:16:07.705Z,13.10
2022-08-04T09:26:22.214Z,12.70
2022-08-04T09:36:41.266Z,10.80
2022-08-04T09:46:53.541Z,11.00
2022-08-04T09:57:16.713Z,11.00
2022-08-04T10:07:36.074Z,9.20
2022-08-04T10:18:18.622Z,11.10
2022-08-04T10:28:25.770Z,12.30
2022-08-04T10:38:51.015Z,11.40
2022-08-04T10:49:15.954Z,11.20
2022-08-04T10:59:35.972Z,12.60
2022-08-04T11:09:44.238Z,10.50
2022-08-04T11:20:24.784Z,9.00
2022-08-04T11:30:35.288Z,9.20
2022-08-04T11:41:02.300Z,9.40
2022-08-04T11:51:10.586Z,8.60
2022-08-04T12:01:28.804Z,8.90
2022-08-04T12:12:05.858Z,8.00
2022-08-04T12:22:25.035Z,9.30
2022-08-04T12:33:02.503Z,8.20
2022-08-04T12:43:20.425Z,8.00
2022-08-04T12:53:35.150Z,8.80
2022-08-04T13:04:00.742Z,7.00
2022-08-04T13:14:26.053Z,7.50
2022-08-04T13:24:56.513Z,8.70
2022-08-04T13:35:03.146Z,8.70
2022-08-04T13:45:10.258Z,8.20
2022-08-04T13:55:27.235Z,7.10
2022-08-04T14:05:58.872Z,8.50
2022-08-04T14:16:03.678Z,8.70
2022-08-04T14:26:18.049Z,9.20
2022-08-04T14:36:25.423Z,7.10
2022-08-04T14:46:36.227Z,9.00
2022-08-04T14:56:53.361Z,8.10
2022-08-04T15:07:04.438Z,6.80
2022-08-04T15:17:30.190Z,8.50
2022-08-04T15:27:40.814Z,10.20
2022-08-04T15:37:56.221Z,7.80
2022-08-04T15:48:05.385Z,8.30
2022-08-04T15:58:16.830Z,8.60
2022-08-04T16:08:23.147Z,8.00
2022-08-04T16:18:32.618Z,9.40
2022-08-04T16:28:42.132Z,9.50
2022-08-04T16:39:05.899Z,10.70
2022-08-04T16:49:12.245Z,9.90
2022-08-04T16:59:18.629Z,11.60
2022-08-04T17:09:28.589Z,9.50
2022-08-04T17:19:35.253Z,10.00
2022-08-04T17:29:44.290Z,10.10
2022-08-04T17:39:54.293Z,8.70
2022-08-04T17:50:11.521Z,11.10
2022-08-04T18:00:19.692Z,10.60
2022-08-04T18:10:44.586Z,14.10
2022-08-04T18:31:28.851Z,11.00
2022-08-04T18:42:02.269Z,9.00
2022-08-04T18:52:11.537Z,13.50
2022-08-04T19:02:21.642Z,12.30
2022-08-04T19:12:35.203Z,15.10
2022-08-04T19:24:11.559Z,14.10
2022-08-04T19:33:08.777Z,17.40
2022-08-04T19:43:15.761Z,17.50
2022-08-04T19:53:36.883Z,16.70
2022-08-04T20:04:08.891Z,15.80
2022-08-04T20:14:09.474Z,14.40
2022-08-04T20:24:38.987Z,14.30
2022-08-04T20:34:42.198Z,12.30
2022-08-04T20:44:48.498Z,14.50
2022-08-04T20:54:56.273Z,19.60
2022-08-04T21:05:02.903Z,18.70
2022-08-04T21:15:13.284Z,14.90
2022-08-04T21:25:21.019Z,13.30
2022-08-04T21:35:37.183Z,13.40
2022-08-04T21:45:45.309Z,14.00
2022-08-04T21:56:05.173Z,16.20
2022-08-04T22:06:17.531Z,14.40
2022-08-04T22:16:24.078Z,14.10
2022-08-04T22:26:31.611Z,13.70
2022-08-04T22:36:40.307Z,11.90
2022-08-04T22:46:47.154Z,13.10
2022-08-04T22:56:54.497Z,13.20
2022-08-04T23:07:08.936Z,10.90
2022-08-04T23:17:16.013Z,11.30
2022-08-04T23:27:22.487Z,12.70
2022-08-04T23:37:35.479Z,10.60
2022-08-04T23:48:16.140Z,10.90
2022-08-04T23:58:18.886Z,9.50
